Woodson, Illinois
Current Conditions -  °F | °C
As of 5:35 AM on Tuesday 21 Oct 2014 (Local Time) from KIJX Reporting Station
Clear Clear  
Wind Chill: 45°   Ceiling: Unl
Heat Index: 45°   Visibility: 10mi
Dew Point: 42°   Wind: 3mph
Humidity: 91%   Direction: 360°N
Pressure: 30.08"   Gusts: NA
Location:  39.63°N, 90.22°W
Report Text: KIJX 211035Z AUTO 36003KT 10SM CLR 07/06 A3008 RMK AO2 T00700057
Loading
Personal Weather Stations






























Interactive Weather Map
Tropical Storm Tracking
New forecast layout! Learn more

10-Day Weather Forecast

Advertisements
Track Severe Weather on mobile